createdAt,value
2022-09-27T00:01:01.255Z,9.59
2022-09-27T00:03:28.991Z,9.56
2022-09-27T00:06:13.373Z,9.44
2022-09-27T00:08:40.830Z,9.42
2022-09-27T00:11:13.876Z,9.41
2022-09-27T00:13:46.495Z,9.36
2022-09-27T00:16:13.452Z,9.26
2022-09-27T00:18:40.168Z,9.32
2022-09-27T00:21:09.301Z,9.21
2022-09-27T00:23:36.874Z,9.19
2022-09-27T00:26:05.172Z,9.16
2022-09-27T00:28:32.203Z,9.09
2022-09-27T00:30:59.736Z,9.07
2022-09-27T00:33:27.267Z,9.04
2022-09-27T00:35:53.950Z,9.02
2022-09-27T00:38:20.628Z,8.96
2022-09-27T00:40:48.372Z,8.91
2022-09-27T00:43:21.628Z,8.91
2022-09-27T00:45:55.691Z,8.87
2022-09-27T00:48:27.913Z,8.81
2022-09-27T00:50:59.822Z,8.75
2022-09-27T00:53:31.441Z,8.74
2022-09-27T00:56:03.106Z,8.70
2022-09-27T00:58:35.822Z,8.65
2022-09-27T01:01:06.274Z,8.49
2022-09-27T01:03:40.629Z,8.63
2022-09-27T01:06:09.350Z,8.56
2022-09-27T01:08:36.108Z,8.46
2022-09-27T01:11:13.450Z,8.55
2022-09-27T01:14:05.239Z,8.44
2022-09-27T01:16:47.963Z,8.49
2022-09-27T01:19:34.461Z,8.48
2022-09-27T01:22:12.016Z,8.45
2022-09-27T01:25:12.129Z,8.48
2022-09-27T01:28:22.258Z,8.44
2022-09-27T01:30:56.184Z,8.38
2022-09-27T01:33:31.939Z,8.44
2022-09-27T01:36:15.933Z,8.45
2022-09-27T01:38:43.097Z,8.45
2022-09-27T01:41:26.086Z,8.45
2022-09-27T01:44:09.140Z,8.42
2022-09-27T01:46:45.442Z,8.36
2022-09-27T01:49:27.465Z,8.44
2022-09-27T01:51:59.950Z,8.42
2022-09-27T01:54:35.101Z,8.45
2022-09-27T01:57:25.226Z,8.44
2022-09-27T02:00:02.120Z,8.41
2022-09-27T02:02:55.716Z,8.48
2022-09-27T02:05:32.206Z,8.45
2022-09-27T02:08:16.504Z,8.46
2022-09-27T02:10:47.682Z,8.48
2022-09-27T02:13:56.115Z,8.49
2022-09-27T02:17:13.407Z,8.46
2022-09-27T02:19:55.273Z,8.49
2022-09-27T02:22:37.481Z,8.48
2022-09-27T02:25:30.920Z,8.45
2022-09-27T02:28:02.205Z,8.45
2022-09-27T02:30:33.868Z,8.43
2022-09-27T02:33:13.703Z,8.44
2022-09-27T02:35:40.646Z,8.49
2022-09-27T02:38:08.282Z,8.45
2022-09-27T02:40:42.246Z,8.45
2022-09-27T02:43:09.069Z,8.45
2022-09-27T02:46:14.621Z,8.49
2022-09-27T02:49:20.516Z,8.48
2022-09-27T02:52:10.601Z,8.48
2022-09-27T02:55:00.149Z,8.50
2022-09-27T02:58:26.190Z,8.51
2022-09-27T03:01:20.614Z,8.50
2022-09-27T03:04:23.850Z,8.44
2022-09-27T03:06:53.424Z,8.44
2022-09-27T03:09:22.909Z,8.46
2022-09-27T03:11:49.868Z,8.52
2022-09-27T03:14:17.200Z,8.51
2022-09-27T03:16:55.840Z,8.55
2022-09-27T03:19:42.463Z,8.55
2022-09-27T03:22:27.748Z,8.66
2022-09-27T03:24:54.435Z,8.75
2022-09-27T03:27:21.088Z,8.77
2022-09-27T03:29:47.766Z,8.65
2022-09-27T03:32:14.383Z,8.74
2022-09-27T03:34:59.771Z,8.75
2022-09-27T03:37:29.346Z,8.80
2022-09-27T03:39:56.025Z,8.86
2022-09-27T03:42:22.804Z,8.77
2022-09-27T03:44:51.519Z,8.67
2022-09-27T03:47:18.268Z,8.57
2022-09-27T03:49:45.059Z,8.46
2022-09-27T03:52:11.670Z,8.39
2022-09-27T03:54:38.551Z,8.26
2022-09-27T03:57:05.523Z,8.21
2022-09-27T03:59:33.163Z,8.12
2022-09-27T04:02:22.635Z,8.01
2022-09-27T04:05:08.060Z,8.00
2022-09-27T04:07:35.264Z,7.94
2022-09-27T04:10:02.214Z,7.80
2022-09-27T04:12:30.227Z,7.75
2022-09-27T04:14:56.906Z,7.76
2022-09-27T04:17:49.968Z,7.82
2022-09-27T04:20:36.227Z,7.80
2022-09-27T04:23:12.172Z,7.77
2022-09-27T04:25:43.442Z,7.81
2022-09-27T04:28:38.958Z,7.86
2022-09-27T04:31:06.295Z,7.90
2022-09-27T04:33:52.177Z,7.84
2022-09-27T04:36:29.432Z,7.86
2022-09-27T04:39:12.485Z,7.80
2022-09-27T04:41:45.079Z,7.89
2022-09-27T04:44:12.248Z,7.84
2022-09-27T04:46:42.505Z,7.85
2022-09-27T04:49:10.705Z,7.89
2022-09-27T04:51:37.459Z,7.89
2022-09-27T04:54:04.911Z,8.01
2022-09-27T04:56:40.341Z,8.00
2022-09-27T04:59:10.809Z,7.90
2022-09-27T05:01:40.253Z,7.85
2022-09-27T05:04:25.342Z,7.88
2022-09-27T05:06:57.164Z,7.86
2022-09-27T05:09:32.119Z,7.93
2022-09-27T05:11:59.808Z,8.00
2022-09-27T05:14:49.190Z,7.97
2022-09-27T05:17:16.318Z,7.95
2022-09-27T05:19:43.164Z,7.97
2022-09-27T05:22:13.001Z,7.95
2022-09-27T05:24:40.301Z,7.91
2022-09-27T05:27:09.983Z,7.93
2022-09-27T05:29:36.720Z,7.89
2022-09-27T05:32:14.637Z,7.98
2022-09-27T05:34:42.747Z,8.04
2022-09-27T05:37:09.999Z,7.96
2022-09-27T05:39:39.385Z,7.97
2022-09-27T05:42:08.441Z,7.97
2022-09-27T05:44:35.467Z,7.97
2022-09-27T05:47:04.519Z,7.88
2022-09-27T05:49:33.087Z,7.89
2022-09-27T05:52:01.695Z,7.79
2022-09-27T05:54:30.004Z,7.87
2022-09-27T05:56:59.237Z,7.89
2022-09-27T05:59:43.515Z,7.96
2022-09-27T06:02:22.270Z,7.91
2022-09-27T06:05:04.467Z,7.88
2022-09-27T06:08:11.257Z,7.85
2022-09-27T06:10:43.286Z,7.82
2022-09-27T06:13:13.105Z,7.87
2022-09-27T06:15:43.841Z,7.78
2022-09-27T06:18:18.835Z,7.83
2022-09-27T06:20:48.495Z,7.82
2022-09-27T06:23:22.605Z,7.84
2022-09-27T06:25:51.901Z,7.75
2022-09-27T06:28:37.618Z,7.68
2022-09-27T06:31:08.242Z,7.64
2022-09-27T06:33:49.072Z,7.63
2022-09-27T06:38:46.833Z,7.72
2022-09-27T06:41:30.858Z,7.85
2022-09-27T06:44:20.598Z,7.91
2022-09-27T06:47:05.654Z,7.91
2022-09-27T06:49:51.009Z,7.96
2022-09-27T06:52:18.844Z,7.86
2022-09-27T06:54:45.671Z,7.83
2022-09-27T06:57:32.262Z,7.87
2022-09-27T07:00:17.318Z,7.82
2022-09-27T07:03:02.616Z,7.75
2022-09-27T07:05:38.523Z,7.80
2022-09-27T07:08:15.897Z,7.84
2022-09-27T07:10:42.559Z,7.90
2022-09-27T07:13:11.265Z,7.84
2022-09-27T07:15:41.898Z,7.86
2022-09-27T07:18:12.736Z,7.93
2022-09-27T07:20:39.888Z,7.99
2022-09-27T07:23:07.828Z,8.01
2022-09-27T07:25:35.416Z,8.03
2022-09-27T07:28:08.237Z,8.00
2022-09-27T07:30:36.925Z,7.91
2022-09-27T07:33:05.874Z,7.83
2022-09-27T07:35:32.916Z,7.70
2022-09-27T07:37:59.788Z,7.74
2022-09-27T07:40:28.811Z,7.71
2022-09-27T07:42:56.831Z,7.85
2022-09-27T07:45:25.240Z,7.97
2022-09-27T07:48:24.165Z,8.07
2022-09-27T07:51:10.930Z,8.19
2022-09-27T07:53:50.198Z,8.65
2022-09-27T07:56:49.105Z,9.22
2022-09-27T07:59:19.012Z,9.54
2022-09-27T08:01:46.509Z,9.55
2022-09-27T08:04:13.316Z,9.35
2022-09-27T08:06:42.150Z,9.03
2022-09-27T08:09:09.946Z,8.76
2022-09-27T08:11:38.746Z,8.57
2022-09-27T08:14:06.740Z,8.46
2022-09-27T08:16:34.737Z,8.48
2022-09-27T08:19:33.078Z,8.46
2022-09-27T08:22:26.909Z,8.49
2022-09-27T08:24:56.594Z,8.51
2022-09-27T08:27:38.520Z,8.40
2022-09-27T08:30:18.263Z,8.35
2022-09-27T08:32:45.222Z,8.36
2022-09-27T08:35:15.417Z,8.44
2022-09-27T08:37:42.122Z,8.51
2022-09-27T08:40:11.349Z,8.49
2022-09-27T08:42:50.185Z,8.47
2022-09-27T08:45:24.793Z,8.34
2022-09-27T08:48:00.220Z,8.26
2022-09-27T08:50:40.225Z,8.16
2022-09-27T08:53:26.439Z,8.18
2022-09-27T08:55:56.940Z,8.26
2022-09-27T08:58:51.951Z,8.38
2022-09-27T09:01:28.846Z,8.33
2022-09-27T09:04:10.371Z,8.53
2022-09-27T09:06:49.801Z,8.62
2022-09-27T09:09:50.021Z,8.71
2022-09-27T09:12:47.679Z,8.86
2022-09-27T09:15:58.992Z,9.14
2022-09-27T09:19:06.213Z,9.25
2022-09-27T09:22:13.510Z,9.01
2022-09-27T09:24:47.286Z,8.82
2022-09-27T09:27:22.843Z,8.86
2022-09-27T09:30:18.548Z,9.43
2022-09-27T09:33:02.233Z,9.57
2022-09-27T09:35:43.251Z,9.70
2022-09-27T09:38:16.097Z,10.54
2022-09-27T09:41:07.404Z,10.81
2022-09-27T09:43:45.347Z,11.04
2022-09-27T09:46:20.339Z,10.94
2022-09-27T09:49:29.447Z,10.67
2022-09-27T09:52:06.524Z,10.50
2022-09-27T09:54:43.272Z,10.25
2022-09-27T09:57:16.869Z,10.27
2022-09-27T09:59:49.779Z,10.11
2022-09-27T10:02:38.384Z,9.86
2022-09-27T10:05:22.512Z,9.71
2022-09-27T10:08:00.091Z,9.03
2022-09-27T10:10:27.302Z,8.54
2022-09-27T10:13:03.065Z,8.57
2022-09-27T10:15:34.081Z,9.12
2022-09-27T10:18:00.917Z,9.37
2022-09-27T10:20:35.402Z,9.33
2022-09-27T10:23:14.380Z,9.39
2022-09-27T10:26:04.478Z,9.36
2022-09-27T10:28:47.525Z,9.34
2022-09-27T10:31:20.576Z,9.25
2022-09-27T10:34:33.692Z,9.51
2022-09-27T10:37:05.039Z,9.43
2022-09-27T10:39:33.247Z,9.66
2022-09-27T10:42:00.073Z,10.01
2022-09-27T10:44:36.443Z,10.53
2022-09-27T10:47:23.876Z,11.36
2022-09-27T10:50:06.729Z,11.82
2022-09-27T10:53:05.980Z,12.28
2022-09-27T10:55:35.817Z,12.69
2022-09-27T10:58:04.292Z,12.60
2022-09-27T11:00:37.315Z,12.13
2022-09-27T11:03:12.695Z,12.68
2022-09-27T11:05:39.895Z,12.88
2022-09-27T11:08:19.013Z,12.10
2022-09-27T11:11:04.365Z,12.19
2022-09-27T11:13:33.675Z,12.29
2022-09-27T11:16:28.905Z,12.79
2022-09-27T11:19:24.864Z,12.25
2022-09-27T11:22:01.366Z,11.78
2022-09-27T11:24:54.815Z,12.08
2022-09-27T11:28:06.070Z,12.01
2022-09-27T11:31:28.226Z,12.32
2022-09-27T11:34:14.838Z,12.01
2022-09-27T11:36:54.599Z,11.99
2022-09-27T11:39:46.033Z,11.91
2022-09-27T11:42:57.615Z,11.66
2022-09-27T11:46:16.539Z,11.48
2022-09-27T11:49:27.411Z,11.45
2022-09-27T11:52:23.340Z,11.73
2022-09-27T11:54:56.248Z,12.34
2022-09-27T11:57:31.971Z,13.23
2022-09-27T12:00:06.301Z,13.83
2022-09-27T12:03:20.655Z,13.75
2022-09-27T12:05:57.788Z,13.12
2022-09-27T12:09:02.781Z,12.42
2022-09-27T12:11:52.412Z,12.19
2022-09-27T12:14:28.505Z,12.21
2022-09-27T12:16:57.773Z,12.73
2022-09-27T12:19:36.423Z,13.27
2022-09-27T12:22:12.822Z,13.29
2022-09-27T12:24:43.962Z,13.18
2022-09-27T12:27:40.175Z,12.73
2022-09-27T12:30:13.861Z,12.53
2022-09-27T12:33:08.806Z,12.68
2022-09-27T12:35:45.070Z,13.25
2022-09-27T12:38:19.935Z,13.44
2022-09-27T12:40:52.812Z,13.93
2022-09-27T12:43:34.915Z,14.49
2022-09-27T12:46:49.803Z,14.55
2022-09-27T12:49:32.435Z,14.38
2022-09-27T12:52:09.291Z,14.45
2022-09-27T12:55:11.134Z,14.44
2022-09-27T12:58:19.552Z,14.35
2022-09-27T13:00:52.938Z,13.99
2022-09-27T13:03:32.481Z,13.62
2022-09-27T13:06:08.027Z,13.23
2022-09-27T13:08:58.570Z,12.66
2022-09-27T13:12:14.420Z,12.38
2022-09-27T13:15:00.519Z,12.13
2022-09-27T13:17:44.071Z,11.94
2022-09-27T13:20:36.103Z,11.80
2022-09-27T13:23:19.009Z,11.43
2022-09-27T13:25:55.795Z,11.27
2022-09-27T13:28:50.343Z,11.10
2022-09-27T13:31:54.243Z,10.72
2022-09-27T13:34:52.530Z,10.10
2022-09-27T13:37:50.841Z,9.74
2022-09-27T13:40:35.935Z,9.61
2022-09-27T13:43:42.022Z,9.38
2022-09-27T13:46:26.331Z,9.57
2022-09-27T13:49:17.301Z,9.67
2022-09-27T13:52:15.244Z,9.75
2022-09-27T13:54:54.133Z,9.78
2022-09-27T13:57:45.804Z,9.89
2022-09-27T14:00:25.455Z,9.93
2022-09-27T14:03:15.569Z,9.88
2022-09-27T14:05:50.589Z,9.97
2022-09-27T14:08:33.455Z,10.14
2022-09-27T14:11:03.379Z,10.15
2022-09-27T14:13:33.391Z,10.26
2022-09-27T14:16:07.426Z,10.22
2022-09-27T14:18:46.171Z,10.36
2022-09-27T14:21:21.597Z,10.32
2022-09-27T14:24:43.845Z,9.96
2022-09-27T14:27:29.635Z,10.17
2022-09-27T14:30:22.722Z,10.27
2022-09-27T14:33:00.742Z,10.38
2022-09-27T14:36:08.346Z,10.62
2022-09-27T14:38:38.736Z,10.69
2022-09-27T14:41:16.137Z,10.85
2022-09-27T14:43:46.457Z,10.71
2022-09-27T14:46:28.393Z,10.29
2022-09-27T14:48:55.997Z,9.96
2022-09-27T14:51:33.183Z,9.75
2022-09-27T14:54:05.641Z,9.67
2022-09-27T14:56:37.516Z,9.61
2022-09-27T14:59:09.096Z,9.44
2022-09-27T15:01:38.161Z,9.36
2022-09-27T15:04:07.131Z,9.33
2022-09-27T15:06:37.287Z,9.35
2022-09-27T15:09:05.415Z,9.27
2022-09-27T15:11:34.836Z,9.17
2022-09-27T15:14:03.878Z,9.17
2022-09-27T15:16:31.411Z,9.38
2022-09-27T15:19:23.053Z,9.54
2022-09-27T15:21:49.837Z,9.60
2022-09-27T15:24:35.513Z,9.64
2022-09-27T15:27:02.543Z,9.56
2022-09-27T15:29:29.310Z,9.44
2022-09-27T15:32:08.147Z,9.31
2022-09-27T15:34:35.805Z,9.28
2022-09-27T15:37:05.136Z,9.25
2022-09-27T15:39:39.751Z,9.10
2022-09-27T15:42:17.411Z,9.05
2022-09-27T15:44:50.243Z,9.02
2022-09-27T15:47:32.323Z,8.99
2022-09-27T15:49:59.575Z,9.10
2022-09-27T15:52:50.794Z,9.25
2022-09-27T15:55:28.466Z,9.28
2022-09-27T15:58:20.387Z,9.22
2022-09-27T16:00:58.294Z,9.13
2022-09-27T16:03:26.272Z,9.20
2022-09-27T16:05:56.288Z,9.22
2022-09-27T16:08:24.082Z,9.14
2022-09-27T16:10:56.196Z,9.01
2022-09-27T16:13:26.009Z,8.93
2022-09-27T16:15:55.830Z,8.84
2022-09-27T16:18:23.219Z,8.82
2022-09-27T16:20:51.750Z,8.90
2022-09-27T16:23:18.315Z,8.87
2022-09-27T16:25:44.931Z,8.86
2022-09-27T16:28:11.618Z,8.77
2022-09-27T16:30:38.267Z,8.66
2022-09-27T16:33:05.160Z,8.55
2022-09-27T16:35:31.806Z,8.52
2022-09-27T16:37:58.598Z,8.49
2022-09-27T16:40:26.727Z,8.52
2022-09-27T16:42:53.375Z,8.50
2022-09-27T16:45:20.059Z,8.48
2022-09-27T16:47:47.404Z,8.55
2022-09-27T16:50:33.166Z,8.48
2022-09-27T16:53:00.332Z,8.38
2022-09-27T16:55:28.729Z,8.33
2022-09-27T16:57:58.906Z,8.25
2022-09-27T17:00:25.898Z,8.16
2022-09-27T17:02:53.080Z,8.11
2022-09-27T17:05:20.860Z,8.10
2022-09-27T17:07:51.036Z,8.06
2022-09-27T17:10:19.253Z,7.99
2022-09-27T17:12:47.333Z,8.10
2022-09-27T17:15:14.828Z,8.00
2022-09-27T17:17:41.531Z,7.96
2022-09-27T17:20:08.470Z,7.97
2022-09-27T17:22:35.166Z,7.91
2022-09-27T17:25:01.797Z,7.91
2022-09-27T17:27:28.778Z,7.91
2022-09-27T17:29:55.955Z,7.93
2022-09-27T17:32:24.686Z,7.91
2022-09-27T17:34:52.255Z,7.91
2022-09-27T17:37:19.332Z,7.85
2022-09-27T17:39:46.008Z,7.84
2022-09-27T17:42:12.753Z,7.82
2022-09-27T17:44:39.666Z,7.85
2022-09-27T17:47:25.041Z,7.78
2022-09-27T17:50:10.364Z,7.75
2022-09-27T17:52:37.509Z,7.76
2022-09-27T17:55:04.585Z,7.83
2022-09-27T17:57:31.867Z,7.83
2022-09-27T17:59:58.541Z,7.85
2022-09-27T18:02:26.176Z,7.85
2022-09-27T18:04:52.933Z,7.82
2022-09-27T18:07:19.994Z,7.77
2022-09-27T18:09:46.897Z,7.81
2022-09-27T18:12:13.764Z,7.76
2022-09-27T18:14:40.635Z,7.77
2022-09-27T18:17:07.262Z,7.77
2022-09-27T18:19:33.861Z,7.73
2022-09-27T18:22:00.871Z,7.75
2022-09-27T18:24:27.668Z,7.80
2022-09-27T18:26:55.834Z,7.77
2022-09-27T18:29:22.960Z,7.77
2022-09-27T18:31:49.663Z,7.62
2022-09-27T18:34:18.453Z,7.61
2022-09-27T18:36:45.574Z,7.58
2022-09-27T18:39:16.951Z,7.48
2022-09-27T18:41:43.645Z,7.28
2022-09-27T18:44:13.393Z,7.23
2022-09-27T18:46:40.661Z,7.25
2022-09-27T18:49:10.719Z,7.23
2022-09-27T18:51:41.965Z,7.17
2022-09-27T18:54:16.896Z,7.14
2022-09-27T18:56:43.816Z,7.18
2022-09-27T18:59:10.658Z,7.13
2022-09-27T19:01:40.116Z,7.09
2022-09-27T19:04:11.544Z,7.20
2022-09-27T19:06:39.286Z,7.12
2022-09-27T19:09:06.988Z,7.01
2022-09-27T19:11:34.243Z,6.93
2022-09-27T19:14:01.380Z,6.85
2022-09-27T19:16:29.258Z,6.91
2022-09-27T19:18:56.298Z,6.93
2022-09-27T19:21:25.446Z,6.94
2022-09-27T19:23:52.814Z,6.94
2022-09-27T19:26:21.574Z,6.94
2022-09-27T19:28:49.052Z,6.95
2022-09-27T19:31:18.693Z,6.95
2022-09-27T19:33:45.392Z,6.83
2022-09-27T19:36:13.938Z,6.88
2022-09-27T19:38:40.723Z,6.88
2022-09-27T19:41:10.391Z,6.89
2022-09-27T19:43:37.270Z,6.96
2022-09-27T19:46:06.783Z,6.95
2022-09-27T19:48:36.123Z,6.96
2022-09-27T19:51:02.995Z,6.95
2022-09-27T19:53:32.457Z,6.97
2022-09-27T19:56:00.751Z,6.99
2022-09-27T19:58:29.115Z,6.95
2022-09-27T20:01:06.739Z,6.93
2022-09-27T20:03:34.287Z,6.93
2022-09-27T20:06:01.888Z,6.97
2022-09-27T20:08:30.070Z,7.06
2022-09-27T20:11:03.769Z,7.12
2022-09-27T20:13:34.356Z,7.07
2022-09-27T20:16:13.351Z,7.01
2022-09-27T20:18:46.012Z,6.94
2022-09-27T20:21:12.999Z,6.83
2022-09-27T20:23:40.572Z,6.71
2022-09-27T20:26:13.283Z,6.61
2022-09-27T20:28:42.150Z,6.54
2022-09-27T20:31:13.264Z,6.50
2022-09-27T20:33:44.118Z,6.47
2022-09-27T20:36:12.576Z,6.46
2022-09-27T20:38:43.314Z,6.48
2022-09-27T20:41:11.706Z,6.49
2022-09-27T20:43:39.286Z,6.47
2022-09-27T20:46:10.081Z,6.46
2022-09-27T20:48:38.454Z,6.43
2022-09-27T20:51:05.734Z,6.41
2022-09-27T20:53:33.980Z,6.37
2022-09-27T20:56:03.064Z,6.32
2022-09-27T20:58:31.754Z,6.31
2022-09-27T21:01:06.391Z,6.34
2022-09-27T21:03:33.792Z,6.34
2022-09-27T21:06:00.790Z,6.35
2022-09-27T21:08:33.266Z,6.34
2022-09-27T21:11:11.678Z,6.34
2022-09-27T21:13:39.624Z,6.27
2022-09-27T21:16:14.236Z,6.24
2022-09-27T21:18:41.903Z,6.24
2022-09-27T21:21:13.286Z,6.18
2022-09-27T21:23:44.831Z,6.20
2022-09-27T21:26:20.675Z,6.23
2022-09-27T21:28:52.539Z,6.10
2022-09-27T21:31:34.739Z,6.06
2022-09-27T21:34:03.899Z,6.07
2022-09-27T21:36:34.493Z,6.11
2022-09-27T21:39:02.729Z,6.13
2022-09-27T21:41:29.505Z,6.20
2022-09-27T21:43:56.490Z,6.19
2022-09-27T21:46:26.149Z,6.17
2022-09-27T21:48:58.046Z,6.22
2022-09-27T21:51:33.156Z,6.31
2022-09-27T21:54:02.008Z,6.44
2022-09-27T21:56:31.722Z,6.55
2022-09-27T21:58:58.839Z,6.56
2022-09-27T22:01:34.825Z,6.60
2022-09-27T22:04:03.950Z,6.63
2022-09-27T22:06:33.202Z,6.65
2022-09-27T22:09:03.511Z,6.71
2022-09-27T22:11:32.851Z,6.68
2022-09-27T22:14:00.574Z,6.65
2022-09-27T22:16:28.969Z,6.68
2022-09-27T22:18:56.838Z,6.71
2022-09-27T22:21:29.785Z,6.73
2022-09-27T22:24:07.410Z,6.77
2022-09-27T22:26:37.873Z,6.80
2022-09-27T22:29:05.366Z,6.74
2022-09-27T22:31:32.699Z,6.67
2022-09-27T22:34:01.659Z,6.62
2022-09-27T22:36:28.780Z,6.62
2022-09-27T22:38:56.165Z,6.63
2022-09-27T22:41:23.793Z,6.61
2022-09-27T22:43:54.014Z,6.63
2022-09-27T22:46:22.061Z,6.65
2022-09-27T22:48:52.704Z,6.63
2022-09-27T22:51:19.490Z,6.59
2022-09-27T22:53:46.167Z,6.54
2022-09-27T22:56:16.095Z,6.52
2022-09-27T22:58:44.153Z,6.54
2022-09-27T23:01:16.250Z,6.56
2022-09-27T23:03:44.021Z,6.56
2022-09-27T23:06:11.134Z,6.53
2022-09-27T23:08:39.423Z,6.54
2022-09-27T23:11:09.996Z,6.57
2022-09-27T23:13:39.331Z,6.57
2022-09-27T23:16:08.996Z,6.59
2022-09-27T23:18:37.482Z,6.57
2022-09-27T23:21:09.854Z,6.64
2022-09-27T23:23:37.804Z,6.69
2022-09-27T23:26:07.695Z,6.76
2022-09-27T23:28:35.279Z,6.80
2022-09-27T23:31:22.121Z,6.83
2022-09-27T23:33:50.434Z,6.86
2022-09-27T23:36:20.171Z,6.92
2022-09-27T23:38:48.493Z,6.97
2022-09-27T23:41:16.978Z,6.99
2022-09-27T23:43:44.521Z,6.95
2022-09-27T23:46:12.344Z,6.93
2022-09-27T23:48:39.138Z,6.91
2022-09-27T23:51:07.777Z,6.93
2022-09-27T23:53:34.866Z,6.98
2022-09-27T23:56:13.461Z,6.93
2022-09-27T23:58:42.870Z,6.90
